createdAt,value
2019-03-30T00:00:02.436Z,5.59
2019-03-30T00:02:35.492Z,5.59
2019-03-30T00:05:06.106Z,5.61
2019-03-30T00:07:37.360Z,5.62
2019-03-30T00:10:08.436Z,5.59
2019-03-30T00:12:41.295Z,5.57
2019-03-30T00:15:11.778Z,5.56
2019-03-30T00:17:42.019Z,5.56
2019-03-30T00:20:13.259Z,5.56
2019-03-30T00:22:43.803Z,5.58
2019-03-30T00:25:14.845Z,5.57
2019-03-30T00:27:45.515Z,5.58
2019-03-30T00:30:19.024Z,5.58
2019-03-30T00:32:48.518Z,5.61
2019-03-30T00:35:19.202Z,5.62
2019-03-30T00:37:50.411Z,5.64
2019-03-30T00:40:21.616Z,5.67
2019-03-30T00:42:52.042Z,5.70
2019-03-30T00:45:22.584Z,5.73
2019-03-30T00:47:52.927Z,5.77
2019-03-30T00:50:23.229Z,5.79
2019-03-30T00:52:54.035Z,5.82
2019-03-30T00:55:24.578Z,5.83
2019-03-30T00:57:55.079Z,5.84
2019-03-30T01:00:25.598Z,5.85
2019-03-30T01:02:56.391Z,5.88
2019-03-30T01:05:27.262Z,5.90
2019-03-30T01:07:58.023Z,5.91
2019-03-30T01:10:28.511Z,5.92
2019-03-30T01:12:59.241Z,5.93
2019-03-30T01:15:29.995Z,5.93
2019-03-30T01:18:01.006Z,5.95
2019-03-30T01:20:31.636Z,5.95
2019-03-30T01:23:02.682Z,5.96
2019-03-30T01:25:33.489Z,5.98
2019-03-30T01:28:04.105Z,5.97
2019-03-30T01:30:34.638Z,5.97
2019-03-30T01:33:05.308Z,5.96
2019-03-30T01:35:35.841Z,5.98
2019-03-30T01:38:06.273Z,5.97
2019-03-30T01:40:37.036Z,5.98
2019-03-30T01:43:07.841Z,5.99
2019-03-30T01:45:38.382Z,5.98
2019-03-30T01:48:09.101Z,5.97
2019-03-30T01:50:39.897Z,5.98
2019-03-30T01:53:10.368Z,6.00
2019-03-30T01:55:40.881Z,5.99
2019-03-30T01:58:11.512Z,6.01
2019-03-30T02:00:42.491Z,6.02
2019-03-30T02:03:13.308Z,6.05
2019-03-30T02:05:44.446Z,6.05
2019-03-30T02:08:15.075Z,6.04
2019-03-30T02:10:46.387Z,6.05
2019-03-30T02:13:16.993Z,6.05
2019-03-30T02:15:47.482Z,6.07
2019-03-30T02:18:17.971Z,6.09
2019-03-30T02:20:48.911Z,6.09
2019-03-30T02:23:19.610Z,6.09
2019-03-30T02:25:50.169Z,6.11
2019-03-30T02:28:20.880Z,6.12
2019-03-30T02:30:51.994Z,6.12
2019-03-30T02:33:22.783Z,6.13
2019-03-30T02:35:53.319Z,6.13
2019-03-30T02:38:23.867Z,6.13
2019-03-30T02:40:54.545Z,6.14
2019-03-30T02:43:25.222Z,6.12
2019-03-30T02:45:55.697Z,6.15
2019-03-30T02:48:26.418Z,6.14
2019-03-30T02:50:56.858Z,6.14
2019-03-30T02:53:27.659Z,6.15
2019-03-30T02:55:58.497Z,6.15
2019-03-30T02:58:29.117Z,6.16
2019-03-30T03:00:59.879Z,6.17
2019-03-30T03:03:31.235Z,6.16
2019-03-30T03:06:01.841Z,6.14
2019-03-30T03:08:32.320Z,6.13
2019-03-30T03:11:02.907Z,6.13
2019-03-30T03:13:33.499Z,6.12
2019-03-30T03:16:04.126Z,6.13
2019-03-30T03:18:35.045Z,6.14
2019-03-30T03:21:08.517Z,6.16
2019-03-30T03:23:39.054Z,6.16
2019-03-30T03:26:10.075Z,6.17
2019-03-30T03:28:40.777Z,6.19
2019-03-30T03:31:11.933Z,6.19
2019-03-30T03:33:42.768Z,6.20
2019-03-30T03:36:13.469Z,6.20
2019-03-30T03:38:44.029Z,6.18
2019-03-30T03:41:14.889Z,6.18
2019-03-30T03:43:45.655Z,6.17
2019-03-30T03:46:16.335Z,6.13
2019-03-30T03:48:47.015Z,6.12
2019-03-30T03:51:26.294Z,6.14
2019-03-30T03:53:52.224Z,6.11
2019-03-30T03:56:23.416Z,6.10
2019-03-30T03:58:56.093Z,6.11
2019-03-30T04:01:27.673Z,6.12
2019-03-30T04:04:00.016Z,6.15
2019-03-30T04:06:32.502Z,6.17
2019-03-30T04:09:04.856Z,6.19
2019-03-30T04:11:37.915Z,6.20
2019-03-30T04:14:09.649Z,6.18
2019-03-30T04:16:40.282Z,6.19
2019-03-30T04:19:11.336Z,6.19
2019-03-30T04:21:44.685Z,6.21
2019-03-30T04:24:14.935Z,6.20
2019-03-30T04:26:45.401Z,6.21
2019-03-30T04:29:16.006Z,6.17
2019-03-30T04:31:46.562Z,6.16
2019-03-30T04:34:17.510Z,6.19
2019-03-30T04:36:48.229Z,6.19
2019-03-30T04:39:18.850Z,6.18
2019-03-30T04:41:49.293Z,6.19
2019-03-30T04:44:19.933Z,6.25
2019-03-30T04:46:50.457Z,6.30
2019-03-30T04:49:21.082Z,6.34
2019-03-30T04:51:57.726Z,6.40
2019-03-30T04:54:24.762Z,6.45
2019-03-30T04:56:55.405Z,6.49
2019-03-30T04:59:26.207Z,6.50
2019-03-30T05:01:57.151Z,6.53
2019-03-30T05:04:27.614Z,6.57
2019-03-30T05:06:58.405Z,6.58
2019-03-30T05:09:29.049Z,6.64
2019-03-30T05:12:00.719Z,6.72
2019-03-30T05:14:31.528Z,6.76
2019-03-30T05:17:02.385Z,6.86
2019-03-30T05:19:33.704Z,6.94
2019-03-30T05:22:12.100Z,6.97
2019-03-30T05:24:36.702Z,6.96
2019-03-30T05:27:07.362Z,6.92
2019-03-30T05:29:38.228Z,6.98
2019-03-30T05:32:08.716Z,7.09
2019-03-30T05:34:40.224Z,7.21
2019-03-30T05:37:10.817Z,7.25
2019-03-30T05:39:41.400Z,7.34
2019-03-30T05:42:12.140Z,7.48
2019-03-30T05:44:43.129Z,7.54
2019-03-30T05:47:14.232Z,7.59
2019-03-30T05:49:44.912Z,7.64
2019-03-30T05:52:26.333Z,7.72
2019-03-30T05:54:48.249Z,7.81
2019-03-30T05:57:18.938Z,7.92
2019-03-30T05:59:49.627Z,7.93
2019-03-30T06:02:20.206Z,7.96
2019-03-30T06:04:51.155Z,8.01
2019-03-30T06:07:22.004Z,8.09
2019-03-30T06:09:52.502Z,8.19
2019-03-30T06:12:23.495Z,8.26
2019-03-30T06:14:54.311Z,8.39
2019-03-30T06:17:25.383Z,8.48
2019-03-30T06:19:55.928Z,8.51
2019-03-30T06:22:39.477Z,8.54
2019-03-30T06:24:59.015Z,8.58
2019-03-30T06:27:29.452Z,8.60
2019-03-30T06:30:16.652Z,8.59
2019-03-30T06:32:48.513Z,8.73
2019-03-30T06:35:19.293Z,8.77
2019-03-30T06:37:51.399Z,8.85
2019-03-30T06:40:21.950Z,8.81
2019-03-30T06:42:53.229Z,8.93
2019-03-30T06:45:24.153Z,9.07
2019-03-30T06:47:54.699Z,9.11
2019-03-30T06:50:25.341Z,9.06
2019-03-30T06:52:59.050Z,9.08
2019-03-30T06:55:29.942Z,9.18
2019-03-30T06:58:01.148Z,9.25
2019-03-30T07:00:32.973Z,9.28
2019-03-30T07:03:05.350Z,9.31
2019-03-30T07:05:40.422Z,9.37
2019-03-30T07:08:14.950Z,9.46
2019-03-30T07:10:46.661Z,9.60
2019-03-30T07:13:17.505Z,9.66
2019-03-30T07:15:50.265Z,9.64
2019-03-30T07:18:21.275Z,9.70
2019-03-30T07:20:52.744Z,9.67
2019-03-30T07:23:23.320Z,9.54
2019-03-30T07:25:54.798Z,9.56
2019-03-30T07:28:25.397Z,9.51
2019-03-30T07:30:56.474Z,9.53
2019-03-30T07:33:27.563Z,9.57
2019-03-30T07:35:58.895Z,9.65
2019-03-30T07:38:29.369Z,9.77
2019-03-30T07:41:00.174Z,9.93
2019-03-30T07:43:35.247Z,10.09
2019-03-30T07:46:05.907Z,10.21
2019-03-30T07:48:36.825Z,10.18
2019-03-30T07:51:07.453Z,10.24
2019-03-30T07:53:44.445Z,10.26
2019-03-30T07:56:14.123Z,10.35
2019-03-30T07:58:45.244Z,10.35
2019-03-30T08:01:16.144Z,10.34
2019-03-30T08:03:46.964Z,10.35
2019-03-30T08:06:17.720Z,10.52
2019-03-30T08:08:48.542Z,10.60
2019-03-30T08:11:19.400Z,10.57
2019-03-30T08:13:50.137Z,10.44
2019-03-30T08:16:20.923Z,10.45
2019-03-30T08:18:52.633Z,10.48
2019-03-30T08:21:23.618Z,10.59
2019-03-30T08:23:54.321Z,10.40
2019-03-30T08:26:24.916Z,10.17
2019-03-30T08:28:55.965Z,10.14
2019-03-30T08:31:27.266Z,10.07
2019-03-30T08:41:03.200Z,9.85
2019-03-30T08:43:34.057Z,9.74
2019-03-30T08:46:05.903Z,9.76
2019-03-30T08:48:36.643Z,9.73
2019-03-30T08:51:07.473Z,9.69
2019-03-30T08:53:38.638Z,9.62
2019-03-30T08:56:09.680Z,9.51
2019-03-30T08:58:40.639Z,9.45
2019-03-30T09:01:11.535Z,9.57
2019-03-30T09:03:42.981Z,9.57
2019-03-30T09:06:13.412Z,9.54
2019-03-30T09:08:43.971Z,9.50
2019-03-30T09:11:14.862Z,9.42
2019-03-30T09:13:45.534Z,9.48
2019-03-30T09:16:16.585Z,9.44
2019-03-30T09:18:47.326Z,9.41
2019-03-30T09:25:02.110Z,9.51
2019-03-30T09:27:33.169Z,9.37
2019-03-30T09:30:05.755Z,9.39
2019-03-30T09:32:36.704Z,9.42
2019-03-30T09:35:08.196Z,9.39
2019-03-30T09:37:38.842Z,9.38
2019-03-30T09:40:10.023Z,9.34
2019-03-30T09:42:43.282Z,9.27
2019-03-30T09:45:14.776Z,9.29
2019-03-30T09:47:45.641Z,9.32
2019-03-30T09:50:16.500Z,9.32
2019-03-30T09:52:47.623Z,9.33
2019-03-30T09:55:18.438Z,9.39
2019-03-30T09:57:49.421Z,9.45
2019-03-30T10:00:20.210Z,9.43
2019-03-30T10:02:50.968Z,9.39
2019-03-30T10:05:22.214Z,9.45
2019-03-30T10:07:52.931Z,9.49
2019-03-30T10:10:23.638Z,9.57
2019-03-30T10:12:54.354Z,9.63
2019-03-30T10:15:27.742Z,9.65
2019-03-30T10:17:58.652Z,9.62
2019-03-30T10:20:29.336Z,9.58
2019-03-30T10:23:00.147Z,9.52
2019-03-30T10:25:31.080Z,9.55
2019-03-30T10:28:02.082Z,9.59
2019-03-30T10:30:32.945Z,9.67
2019-03-30T10:33:04.833Z,9.66
2019-03-30T10:35:35.486Z,9.70
2019-03-30T10:38:06.333Z,9.75
2019-03-30T10:40:36.806Z,9.70
2019-03-30T10:43:07.669Z,9.62
2019-03-30T10:45:38.478Z,9.65
2019-03-30T10:48:09.047Z,9.65
2019-03-30T10:50:40.452Z,9.71
2019-03-30T10:53:11.642Z,9.78
2019-03-30T10:55:42.454Z,9.79
2019-03-30T10:58:13.416Z,9.75
2019-03-30T11:00:44.377Z,9.68
2019-03-30T11:03:15.479Z,9.68
2019-03-30T11:15:20.605Z,10.19
2019-03-30T11:17:51.417Z,10.34
2019-03-30T11:20:22.378Z,10.21
2019-03-30T11:22:53.207Z,10.12
2019-03-30T11:25:24.154Z,10.12
2019-03-30T11:27:54.618Z,10.12
2019-03-30T11:30:25.103Z,10.14
2019-03-30T11:32:56.189Z,10.17
2019-03-30T11:35:27.829Z,10.33
2019-03-30T11:37:59.758Z,10.32
2019-03-30T11:40:30.569Z,10.27
2019-03-30T11:43:01.370Z,10.30
2019-03-30T11:45:32.376Z,10.35
2019-03-30T11:48:03.045Z,10.40
2019-03-30T11:50:33.632Z,10.44
2019-03-30T11:53:04.699Z,10.48
2019-03-30T11:55:36.156Z,10.45
2019-03-30T11:58:12.737Z,10.38
2019-03-30T12:00:43.675Z,10.36
2019-03-30T12:03:14.489Z,10.26
2019-03-30T12:05:45.336Z,10.25
2019-03-30T12:08:16.050Z,10.19
2019-03-30T12:10:46.786Z,10.19
2019-03-30T12:13:18.011Z,10.29
2019-03-30T12:15:48.568Z,10.34
2019-03-30T12:18:19.581Z,10.41
2019-03-30T12:20:50.617Z,10.47
2019-03-30T12:23:21.891Z,10.52
2019-03-30T12:25:52.912Z,10.44
2019-03-30T12:28:24.482Z,10.43
2019-03-30T12:30:55.461Z,10.44
2019-03-30T12:33:26.259Z,10.49
2019-03-30T12:35:57.049Z,10.63
2019-03-30T12:38:27.768Z,10.77
2019-03-30T12:40:58.320Z,10.81
2019-03-30T12:45:21.716Z,10.92
2019-03-30T12:47:52.378Z,10.93
2019-03-30T12:50:22.984Z,11.03
2019-03-30T12:52:53.842Z,11.11
2019-03-30T12:55:24.527Z,11.06
2019-03-30T12:57:55.206Z,10.99
2019-03-30T13:00:25.561Z,10.98
2019-03-30T13:02:56.191Z,10.88
2019-03-30T13:05:27.126Z,10.79
2019-03-30T13:07:57.679Z,10.66
2019-03-30T13:10:28.450Z,10.60
2019-03-30T13:12:59.286Z,10.52
2019-03-30T13:15:30.298Z,10.48
2019-03-30T13:18:01.133Z,10.45
2019-03-30T13:20:31.983Z,10.43
2019-03-30T13:23:02.699Z,10.43
2019-03-30T13:25:35.929Z,10.52
2019-03-30T13:28:07.003Z,10.64
2019-03-30T13:30:38.054Z,10.78
2019-03-30T13:33:08.625Z,10.89
2019-03-30T13:35:39.712Z,11.02
2019-03-30T13:38:10.615Z,11.12
2019-03-30T13:40:41.219Z,11.25
2019-03-30T13:43:11.603Z,11.35
2019-03-30T13:45:42.228Z,11.42
2019-03-30T13:48:13.224Z,11.55
2019-03-30T13:50:44.165Z,11.67
2019-03-30T13:53:15.104Z,12.59
2019-03-30T13:55:45.730Z,14.02
2019-03-30T13:58:16.693Z,15.40
2019-03-30T14:00:48.458Z,16.80
2019-03-30T14:03:19.152Z,18.09
2019-03-30T14:05:50.040Z,18.57
2019-03-30T14:08:20.567Z,19.18
2019-03-30T14:10:51.444Z,19.45
2019-03-30T14:13:22.081Z,19.52
2019-03-30T14:15:52.895Z,19.97
2019-03-30T14:18:23.334Z,20.17
2019-03-30T14:20:53.858Z,20.19
2019-03-30T14:23:24.867Z,20.37
2019-03-30T14:25:55.855Z,20.07
2019-03-30T14:28:26.548Z,20.09
2019-03-30T14:30:57.388Z,19.93
2019-03-30T14:33:28.289Z,18.59
2019-03-30T14:35:58.731Z,16.93
2019-03-30T14:38:31.185Z,15.71
2019-03-30T14:41:03.947Z,14.67
2019-03-30T14:43:35.018Z,13.89
2019-03-30T14:48:36.116Z,12.45
2019-03-30T14:51:07.272Z,11.97
2019-03-30T14:53:38.205Z,11.63
2019-03-30T14:56:09.077Z,11.33
2019-03-30T14:58:40.450Z,11.02
2019-03-30T15:01:12.062Z,10.78
2019-03-30T15:03:42.952Z,10.61
2019-03-30T15:06:13.304Z,10.47
2019-03-30T15:08:44.573Z,10.34
2019-03-30T15:11:15.951Z,10.18
2019-03-30T15:13:48.392Z,10.06
2019-03-30T15:16:19.281Z,9.94
2019-03-30T15:18:49.865Z,9.86
2019-03-30T15:21:20.868Z,9.78
2019-03-30T15:23:51.741Z,9.69
2019-03-30T15:26:22.460Z,9.61
2019-03-30T15:28:53.033Z,9.56
2019-03-30T15:31:23.635Z,9.54
2019-03-30T15:33:54.719Z,9.45
2019-03-30T15:36:25.406Z,9.39
2019-03-30T15:38:56.262Z,9.34
2019-03-30T15:41:27.006Z,9.30
2019-03-30T15:43:57.567Z,9.24
2019-03-30T15:46:28.558Z,9.18
2019-03-30T15:48:59.534Z,9.11
2019-03-30T15:51:30.165Z,9.06
2019-03-30T15:54:01.383Z,8.98
2019-03-30T15:56:32.269Z,8.91
2019-03-30T15:59:02.950Z,8.85
2019-03-30T16:01:34.260Z,8.82
2019-03-30T16:04:05.185Z,8.79
2019-03-30T16:06:35.937Z,8.75
2019-03-30T16:09:07.786Z,8.71
2019-03-30T16:11:39.159Z,8.66
2019-03-30T16:14:09.970Z,8.61
2019-03-30T16:16:40.587Z,8.58
2019-03-30T16:19:13.535Z,8.52
2019-03-30T16:21:44.271Z,8.47
2019-03-30T16:24:19.047Z,8.50
2019-03-30T16:26:50.341Z,8.48
2019-03-30T16:29:21.565Z,8.46
2019-03-30T16:31:52.764Z,8.39
2019-03-30T16:34:24.243Z,8.41
2019-03-30T16:36:55.185Z,8.41
2019-03-30T16:39:25.921Z,8.39
2019-03-30T16:41:56.476Z,8.35
2019-03-30T16:44:27.280Z,8.30
2019-03-30T16:46:58.145Z,8.27
2019-03-30T16:49:28.689Z,8.22
2019-03-30T16:51:59.658Z,8.17
2019-03-30T16:54:31.188Z,8.12
2019-03-30T16:57:01.971Z,8.06
2019-03-30T16:59:33.044Z,8.01
2019-03-30T17:02:03.797Z,7.98
2019-03-30T17:04:35.531Z,7.96
2019-03-30T17:07:06.006Z,7.91
2019-03-30T17:09:36.900Z,7.86
2019-03-30T17:12:08.137Z,7.87
2019-03-30T17:14:43.764Z,7.88
2019-03-30T17:17:14.461Z,7.85
2019-03-30T17:19:45.766Z,7.77
2019-03-30T17:22:16.420Z,7.71
2019-03-30T17:24:47.695Z,7.66
2019-03-30T17:27:18.427Z,7.68
2019-03-30T17:29:49.472Z,7.70
2019-03-30T17:32:20.243Z,7.66
2019-03-30T17:34:51.434Z,7.59
2019-03-30T17:37:22.508Z,7.53
2019-03-30T17:39:53.022Z,7.51
2019-03-30T17:42:24.084Z,7.53
2019-03-30T17:44:54.904Z,7.53
2019-03-30T17:47:25.605Z,7.52
2019-03-30T17:49:56.472Z,7.47
2019-03-30T17:52:26.962Z,7.45
2019-03-30T17:54:57.665Z,7.43
2019-03-30T17:57:28.124Z,7.43
2019-03-30T17:59:58.850Z,7.44
2019-03-30T18:02:30.406Z,7.39
2019-03-30T18:05:01.858Z,7.42
2019-03-30T18:07:33.021Z,7.40
2019-03-30T18:10:04.227Z,7.38
2019-03-30T18:12:37.596Z,7.37
2019-03-30T18:15:08.759Z,7.40
2019-03-30T18:17:39.960Z,7.44
2019-03-30T18:20:10.582Z,7.49
2019-03-30T18:22:41.415Z,7.62
2019-03-30T18:25:13.101Z,7.77
2019-03-30T18:27:45.129Z,7.89
2019-03-30T18:30:15.710Z,7.99
2019-03-30T18:32:47.137Z,8.09
2019-03-30T18:35:18.179Z,8.20
2019-03-30T18:37:49.226Z,8.29
2019-03-30T18:40:30.179Z,8.36
2019-03-30T18:43:02.613Z,8.45
2019-03-30T18:45:34.288Z,8.51
2019-03-30T18:48:12.753Z,8.54
2019-03-30T18:50:43.795Z,8.56
2019-03-30T18:53:18.503Z,8.58
2019-03-30T18:55:49.761Z,8.57
2019-03-30T18:58:21.054Z,8.60
2019-03-30T19:00:51.549Z,8.63
2019-03-30T19:03:22.685Z,8.68
2019-03-30T19:05:53.304Z,8.71
2019-03-30T19:08:24.624Z,8.75
2019-03-30T19:10:55.459Z,8.79
2019-03-30T19:13:26.305Z,8.81
2019-03-30T19:15:56.971Z,8.84
2019-03-30T19:18:27.530Z,8.85
2019-03-30T19:20:58.500Z,8.89
2019-03-30T19:23:29.333Z,8.90
2019-03-30T19:26:00.077Z,8.93
2019-03-30T19:28:31.024Z,8.96
2019-03-30T19:31:01.748Z,8.97
2019-03-30T19:33:32.828Z,8.95
2019-03-30T19:36:04.713Z,8.89
2019-03-30T19:38:36.218Z,8.87
2019-03-30T19:41:06.925Z,8.87
2019-03-30T19:43:41.439Z,8.91
2019-03-30T19:46:12.649Z,8.97
2019-03-30T19:48:43.828Z,9.06
2019-03-30T19:51:15.003Z,9.17
2019-03-30T19:53:46.826Z,9.22
2019-03-30T19:56:17.742Z,9.30
2019-03-30T19:58:48.819Z,9.38
2019-03-30T20:01:19.900Z,9.40
2019-03-30T20:03:51.610Z,9.40
2019-03-30T20:06:22.639Z,9.36
2019-03-30T20:08:53.746Z,9.31
2019-03-30T20:11:24.377Z,9.28
2019-03-30T20:13:55.357Z,9.28
2019-03-30T20:16:26.389Z,9.27
2019-03-30T20:19:11.548Z,9.28
2019-03-30T20:21:31.429Z,9.30
2019-03-30T20:24:02.137Z,9.32
2019-03-30T20:26:32.715Z,9.34
2019-03-30T20:29:04.469Z,9.36
2019-03-30T20:31:35.553Z,9.36
2019-03-30T20:34:06.296Z,9.36
2019-03-30T20:36:37.245Z,9.35
2019-03-30T20:39:08.492Z,9.34
2019-03-30T20:41:39.812Z,9.33
2019-03-30T20:44:11.397Z,9.29
2019-03-30T20:46:43.727Z,9.24
2019-03-30T20:49:15.157Z,9.20
2019-03-30T20:51:46.301Z,9.15
2019-03-30T20:54:17.867Z,9.10
2019-03-30T20:56:48.641Z,9.06
2019-03-30T20:59:20.202Z,9.04
2019-03-30T21:01:54.422Z,9.05
2019-03-30T21:04:26.053Z,9.06
2019-03-30T21:06:57.110Z,9.04
2019-03-30T21:09:28.576Z,9.02
2019-03-30T21:11:59.618Z,8.95
2019-03-30T21:14:30.570Z,8.88
2019-03-30T21:17:04.623Z,8.82
2019-03-30T21:19:35.477Z,8.81
2019-03-30T21:22:06.253Z,8.78
2019-03-30T21:24:37.140Z,8.74
2019-03-30T21:27:07.596Z,8.68
2019-03-30T21:29:38.839Z,8.60
2019-03-30T21:32:09.879Z,8.53
2019-03-30T21:34:40.875Z,8.46
2019-03-30T21:37:11.453Z,8.39
2019-03-30T21:39:42.575Z,8.37
2019-03-30T21:42:13.327Z,8.36
2019-03-30T21:44:43.925Z,8.34
2019-03-30T21:47:14.788Z,8.37
2019-03-30T21:49:45.682Z,8.37
2019-03-30T21:52:16.354Z,8.36
2019-03-30T21:54:46.783Z,8.34
2019-03-30T21:57:17.557Z,8.31
2019-03-30T21:59:48.233Z,8.27
2019-03-30T22:02:18.913Z,8.22
2019-03-30T22:04:49.677Z,8.17
2019-03-30T22:07:20.367Z,8.21
2019-03-30T22:09:51.046Z,8.22
2019-03-30T22:12:22.095Z,8.20
2019-03-30T22:14:52.462Z,8.12
2019-03-30T22:17:23.903Z,8.07
2019-03-30T22:19:54.550Z,8.05
2019-03-30T22:22:25.012Z,8.01
2019-03-30T22:24:55.808Z,8.00
2019-03-30T22:29:44.838Z,7.99
2019-03-30T22:32:15.674Z,7.96
2019-03-30T22:34:47.148Z,7.97
2019-03-30T22:37:17.504Z,7.97
2019-03-30T22:39:48.382Z,7.97
2019-03-30T22:42:19.866Z,8.01
2019-03-30T22:44:50.644Z,8.05
2019-03-30T22:47:20.959Z,8.08
2019-03-30T22:49:51.687Z,8.11
2019-03-30T22:52:22.313Z,8.16
2019-03-30T22:54:53.020Z,8.17
2019-03-30T22:57:23.772Z,8.15
2019-03-30T22:59:54.458Z,8.14
2019-03-30T23:02:25.675Z,8.15
2019-03-30T23:04:56.029Z,8.10
2019-03-30T23:07:26.550Z,8.07
2019-03-30T23:09:57.194Z,8.05
2019-03-30T23:12:27.696Z,8.03
2019-03-30T23:14:58.398Z,8.00
2019-03-30T23:17:29.107Z,7.99
2019-03-30T23:19:59.764Z,7.96
2019-03-30T23:22:30.899Z,7.94
2019-03-30T23:25:01.770Z,7.91
2019-03-30T23:27:32.395Z,7.93
2019-03-30T23:30:03.251Z,7.92
2019-03-30T23:32:34.123Z,7.91
2019-03-30T23:35:05.882Z,7.91
2019-03-30T23:37:36.691Z,7.86
2019-03-30T23:40:08.425Z,7.84
2019-03-30T23:42:39.461Z,7.81
2019-03-30T23:45:10.498Z,7.75
2019-03-30T23:47:41.152Z,7.67
2019-03-30T23:50:12.005Z,7.58
2019-03-30T23:52:42.729Z,7.55
2019-03-30T23:55:13.819Z,7.54
2019-03-30T23:57:44.736Z,7.52
